createdAt,value
2022-11-06T00:08:47.981Z,11
2022-11-06T00:18:52.372Z,18
2022-11-06T00:28:58.358Z,13
2022-11-06T00:39:02.642Z,7
2022-11-06T00:49:08.286Z,6
2022-11-06T00:59:12.605Z,8
2022-11-06T01:09:17.896Z,7
2022-11-06T01:19:21.436Z,7
2022-11-06T01:29:34.238Z,7
2022-11-06T01:39:40.230Z,8
2022-11-06T01:49:47.909Z,6
2022-11-06T01:59:53.873Z,7
2022-11-06T02:09:58.115Z,7
2022-11-06T02:20:06.040Z,6
2022-11-06T02:30:10.813Z,7
2022-11-06T02:40:16.797Z,7
2022-11-06T02:50:22.377Z,5
2022-11-06T03:00:27.642Z,7
2022-11-06T03:10:32.910Z,7
2022-11-06T03:20:38.276Z,6
2022-11-06T03:30:47.798Z,6
2022-11-06T03:40:47.722Z,6
2022-11-06T03:50:54.102Z,8
2022-11-06T04:00:59.557Z,6
2022-11-06T04:11:06.120Z,4
2022-11-06T04:21:10.375Z,5
2022-11-06T04:31:16.012Z,8
2022-11-06T04:41:21.628Z,7
2022-11-06T04:51:27.686Z,7
2022-11-06T05:01:33.281Z,5
2022-11-06T05:11:38.700Z,10
2022-11-06T05:21:44.952Z,16
2022-11-06T05:31:50.354Z,19
2022-11-06T05:41:56.345Z,20
2022-11-06T05:52:01.733Z,19
2022-11-06T06:02:08.233Z,14
2022-11-06T06:12:11.394Z,11
2022-11-06T06:22:17.105Z,10
2022-11-06T06:32:21.857Z,9
2022-11-06T06:42:31.833Z,7
2022-11-06T06:52:35.110Z,9
2022-11-06T07:02:41.757Z,7
2022-11-06T07:12:46.862Z,5
2022-11-06T07:23:02.614Z,6
2022-11-06T07:32:57.171Z,6
2022-11-06T07:43:01.397Z,9
2022-11-06T07:53:05.880Z,7
2022-11-06T08:03:14.115Z,5
2022-11-06T08:13:20.439Z,8
2022-11-06T08:23:27.840Z,12
2022-11-06T08:33:33.940Z,11
2022-11-06T08:43:41.664Z,7
2022-11-06T08:53:49.108Z,5
2022-11-06T09:03:53.655Z,4
2022-11-06T09:13:57.260Z,5
2022-11-06T09:24:04.890Z,7
2022-11-06T09:34:10.614Z,6
2022-11-06T09:44:49.665Z,5
2022-11-06T09:54:44.867Z,4
2022-11-06T10:04:47.724Z,4
2022-11-06T10:14:56.710Z,5
2022-11-06T10:25:02.336Z,11
2022-11-06T10:35:09.802Z,9
2022-11-06T10:45:15.093Z,5
2022-11-06T10:55:20.238Z,5
2022-11-06T11:05:28.797Z,4
2022-11-06T11:15:29.996Z,6
2022-11-06T11:25:37.684Z,4
2022-11-06T11:35:45.060Z,5
2022-11-06T11:45:50.123Z,4
2022-11-06T11:55:55.431Z,4
2022-11-06T12:06:11.593Z,4
2022-11-06T12:16:16.795Z,4
2022-11-06T12:26:21.873Z,6
2022-11-06T12:36:27.222Z,8
2022-11-06T12:46:34.187Z,6
2022-11-06T12:56:39.892Z,4
2022-11-06T13:06:54.637Z,3
2022-11-06T13:16:53.598Z,5
2022-11-06T13:26:58.753Z,4
2022-11-06T13:37:05.100Z,4
2022-11-06T13:47:11.078Z,5
2022-11-06T13:57:16.062Z,4
2022-11-06T14:07:23.901Z,5
2022-11-06T14:17:31.996Z,5
2022-11-06T14:27:37.760Z,5
2022-11-06T14:37:43.067Z,4
2022-11-06T14:47:49.638Z,6
2022-11-06T14:57:55.313Z,5
2022-11-06T15:08:36.172Z,8
2022-11-06T15:18:28.829Z,6
2022-11-06T15:28:34.109Z,9
2022-11-06T15:38:40.668Z,12
2022-11-06T15:48:45.857Z,7
2022-11-06T15:58:50.168Z,11
2022-11-06T16:08:55.719Z,9
2022-11-06T16:19:01.452Z,12
2022-11-06T16:29:06.834Z,16
2022-11-06T16:39:49.816Z,8
2022-11-06T16:49:42.777Z,6
2022-11-06T16:59:48.934Z,16
2022-11-06T17:09:57.639Z,14
2022-11-06T17:20:00.984Z,11
2022-11-06T17:30:09.333Z,12
2022-11-06T17:40:10.535Z,14
2022-11-06T17:50:18.256Z,15
2022-11-06T18:00:22.761Z,10
2022-11-06T18:10:31.135Z,10
2022-11-06T18:20:36.540Z,8
2022-11-06T18:30:39.275Z,13
2022-11-06T18:40:51.820Z,11
2022-11-06T18:50:49.498Z,10
2022-11-06T19:01:02.424Z,9
2022-11-06T19:11:01.276Z,14
2022-11-06T19:21:08.814Z,14
2022-11-06T19:31:16.726Z,5
2022-11-06T19:41:22.156Z,6
2022-11-06T19:51:46.581Z,7
2022-11-06T20:01:46.389Z,5
2022-11-06T20:11:53.001Z,8
2022-11-06T20:21:59.872Z,6
2022-11-06T20:32:06.195Z,6
2022-11-06T20:42:12.682Z,6
2022-11-06T20:52:56.100Z,7
2022-11-06T21:02:50.576Z,5
2022-11-06T21:12:54.718Z,4
2022-11-06T21:22:59.411Z,5
2022-11-06T21:33:05.001Z,6
2022-11-06T21:43:09.384Z,4
2022-11-06T21:53:17.291Z,4
2022-11-06T22:03:19.656Z,4
2022-11-06T22:13:24.358Z,5
2022-11-06T22:23:30.888Z,4
2022-11-06T22:33:37.770Z,5
2022-11-06T22:43:46.257Z,6
2022-11-06T22:53:57.509Z,5
2022-11-06T23:03:58.685Z,5
2022-11-06T23:14:09.585Z,4
2022-11-06T23:24:08.103Z,6
2022-11-06T23:34:15.825Z,7
2022-11-06T23:44:20.581Z,6
2022-11-06T23:54:26.094Z,5
